sensor_id;sensor_type;location;lat;lon;timestamp;P1;durP1;ratioP1;P2;durP2;ratioP2
32321;SDS011;61553;48.994;8.940;2024-03-17T00:02:20;4.35;;;1.80;;
32321;SDS011;61553;48.994;8.940;2024-03-17T00:04:46;4.57;;;1.60;;
32321;SDS011;61553;48.994;8.940;2024-03-17T00:07:12;3.50;;;1.63;;
32321;SDS011;61553;48.994;8.940;2024-03-17T00:09:38;4.40;;;2.17;;
32321;SDS011;61553;48.994;8.940;2024-03-17T00:12:04;4.88;;;2.08;;
32321;SDS011;61553;48.994;8.940;2024-03-17T00:14:30;3.33;;;2.00;;
32321;SDS011;61553;48.994;8.940;2024-03-17T00:16:56;4.95;;;2.10;;
32321;SDS011;61553;48.994;8.940;2024-03-17T00:19:23;6.38;;;2.17;;
32321;SDS011;61553;48.994;8.940;2024-03-17T00:21:49;7.13;;;2.35;;
32321;SDS011;61553;48.994;8.940;2024-03-17T00:24:18;7.75;;;1.88;;
32321;SDS011;61553;48.994;8.940;2024-03-17T00:26:45;3.10;;;1.77;;
32321;SDS011;61553;48.994;8.940;2024-03-17T00:29:11;4.97;;;2.30;;
32321;SDS011;61553;48.994;8.940;2024-03-17T00:31:37;4.47;;;1.92;;
32321;SDS011;61553;48.994;8.940;2024-03-17T00:34:02;4.32;;;2.17;;
32321;SDS011;61553;48.994;8.940;2024-03-17T00:36:29;4.10;;;2.30;;
32321;SDS011;61553;48.994;8.940;2024-03-17T00:38:55;6.43;;;1.92;;
32321;SDS011;61553;48.994;8.940;2024-03-17T00:41:21;6.05;;;2.63;;
32321;SDS011;61553;48.994;8.940;2024-03-17T00:43:48;9.18;;;3.83;;
32321;SDS011;61553;48.994;8.940;2024-03-17T00:46:17;4.70;;;2.40;;
32321;SDS011;61553;48.994;8.940;2024-03-17T00:48:49;5.93;;;2.45;;
32321;SDS011;61553;48.994;8.940;2024-03-17T00:51:15;4.10;;;2.08;;
32321;SDS011;61553;48.994;8.940;2024-03-17T00:53:41;4.07;;;1.92;;
32321;SDS011;61553;48.994;8.940;2024-03-17T00:56:07;6.10;;;2.70;;
32321;SDS011;61553;48.994;8.940;2024-03-17T00:58:33;6.22;;;2.97;;
32321;SDS011;61553;48.994;8.940;2024-03-17T01:00:58;14.50;;;4.88;;
32321;SDS011;61553;48.994;8.940;2024-03-17T01:03:24;9.80;;;4.40;;
32321;SDS011;61553;48.994;8.940;2024-03-17T01:05:50;9.07;;;4.57;;
32321;SDS011;61553;48.994;8.940;2024-03-17T01:08:17;15.05;;;6.88;;
32321;SDS011;61553;48.994;8.940;2024-03-17T01:10:44;19.45;;;6.78;;
32321;SDS011;61553;48.994;8.940;2024-03-17T01:13:14;8.80;;;4.25;;
32321;SDS011;61553;48.994;8.940;2024-03-17T01:15:40;12.82;;;5.15;;
32321;SDS011;61553;48.994;8.940;2024-03-17T01:18:06;8.65;;;3.80;;
32321;SDS011;61553;48.994;8.940;2024-03-17T01:20:34;33.13;;;14.20;;
32321;SDS011;61553;48.994;8.940;2024-03-17T01:23:00;26.30;;;12.82;;
32321;SDS011;61553;48.994;8.940;2024-03-17T01:25:26;15.32;;;6.80;;
32321;SDS011;61553;48.994;8.940;2024-03-17T01:27:52;14.70;;;6.10;;
32321;SDS011;61553;48.994;8.940;2024-03-17T01:30:18;16.95;;;6.82;;
32321;SDS011;61553;48.994;8.940;2024-03-17T01:32:47;15.77;;;5.90;;
32321;SDS011;61553;48.994;8.940;2024-03-17T01:35:13;7.68;;;5.07;;
32321;SDS011;61553;48.994;8.940;2024-03-17T01:37:39;9.90;;;4.28;;
32321;SDS011;61553;48.994;8.940;2024-03-17T01:40:06;8.93;;;4.13;;
32321;SDS011;61553;48.994;8.940;2024-03-17T01:42:35;10.77;;;4.57;;
32321;SDS011;61553;48.994;8.940;2024-03-17T01:45:48;10.02;;;3.90;;
32321;SDS011;61553;48.994;8.940;2024-03-17T01:47:48;9.25;;;4.28;;
32321;SDS011;61553;48.994;8.940;2024-03-17T01:50:14;13.32;;;5.25;;
32321;SDS011;61553;48.994;8.940;2024-03-17T01:52:44;15.68;;;6.22;;
32321;SDS011;61553;48.994;8.940;2024-03-17T01:55:11;18.20;;;7.13;;
32321;SDS011;61553;48.994;8.940;2024-03-17T01:57:37;11.60;;;5.60;;
32321;SDS011;61553;48.994;8.940;2024-03-17T02:00:05;21.13;;;6.63;;
32321;SDS011;61553;48.994;8.940;2024-03-17T02:02:33;12.98;;;5.70;;
32321;SDS011;61553;48.994;8.940;2024-03-17T02:04:59;22.08;;;6.80;;
32321;SDS011;61553;48.994;8.940;2024-03-17T02:07:25;17.80;;;7.75;;
32321;SDS011;61553;48.994;8.940;2024-03-17T02:09:51;16.77;;;6.70;;
32321;SDS011;61553;48.994;8.940;2024-03-17T02:12:16;10.20;;;4.50;;
32321;SDS011;61553;48.994;8.940;2024-03-17T02:14:42;10.40;;;3.92;;
32321;SDS011;61553;48.994;8.940;2024-03-17T02:17:08;5.63;;;3.35;;
32321;SDS011;61553;48.994;8.940;2024-03-17T02:19:33;7.22;;;3.20;;
32321;SDS011;61553;48.994;8.940;2024-03-17T02:21:59;8.73;;;3.38;;
32321;SDS011;61553;48.994;8.940;2024-03-17T02:24:25;23.38;;;8.40;;
32321;SDS011;61553;48.994;8.940;2024-03-17T02:26:51;26.05;;;8.52;;
32321;SDS011;61553;48.994;8.940;2024-03-17T02:29:17;29.08;;;9.57;;
32321;SDS011;61553;48.994;8.940;2024-03-17T02:31:42;23.75;;;9.27;;
32321;SDS011;61553;48.994;8.940;2024-03-17T02:34:08;23.67;;;6.57;;
32321;SDS011;61553;48.994;8.940;2024-03-17T02:36:34;15.18;;;5.30;;
32321;SDS011;61553;48.994;8.940;2024-03-17T02:38:59;17.00;;;6.85;;
32321;SDS011;61553;48.994;8.940;2024-03-17T02:41:43;18.23;;;6.57;;
32321;SDS011;61553;48.994;8.940;2024-03-17T02:44:10;7.60;;;3.35;;
32321;SDS011;61553;48.994;8.940;2024-03-17T02:46:36;7.50;;;3.95;;
32321;SDS011;61553;48.994;8.940;2024-03-17T02:49:03;12.98;;;4.65;;
32321;SDS011;61553;48.994;8.940;2024-03-17T02:51:28;10.57;;;4.45;;
32321;SDS011;61553;48.994;8.940;2024-03-17T02:53:54;10.75;;;3.40;;
32321;SDS011;61553;48.994;8.940;2024-03-17T02:56:20;6.07;;;2.90;;
32321;SDS011;61553;48.994;8.940;2024-03-17T02:58:46;5.85;;;3.05;;
32321;SDS011;61553;48.994;8.940;2024-03-17T03:01:13;6.82;;;3.15;;
32321;SDS011;61553;48.994;8.940;2024-03-17T03:03:40;9.18;;;3.33;;
32321;SDS011;61553;48.994;8.940;2024-03-17T03:06:05;8.73;;;3.75;;
32321;SDS011;61553;48.994;8.940;2024-03-17T03:08:40;10.48;;;4.72;;
32321;SDS011;61553;48.994;8.940;2024-03-17T03:11:07;8.60;;;4.13;;
32321;SDS011;61553;48.994;8.940;2024-03-17T03:13:40;15.50;;;5.05;;
32321;SDS011;61553;48.994;8.940;2024-03-17T03:16:07;15.23;;;6.32;;
32321;SDS011;61553;48.994;8.940;2024-03-17T03:18:37;18.15;;;6.15;;
32321;SDS011;61553;48.994;8.940;2024-03-17T03:21:06;21.90;;;7.53;;
32321;SDS011;61553;48.994;8.940;2024-03-17T03:23:32;23.80;;;7.78;;
32321;SDS011;61553;48.994;8.940;2024-03-17T03:25:59;24.00;;;8.07;;
32321;SDS011;61553;48.994;8.940;2024-03-17T03:28:27;17.80;;;7.75;;
32321;SDS011;61553;48.994;8.940;2024-03-17T03:30:54;16.38;;;7.88;;
32321;SDS011;61553;48.994;8.940;2024-03-17T03:33:20;17.13;;;7.30;;
32321;SDS011;61553;48.994;8.940;2024-03-17T03:35:46;13.10;;;4.45;;
32321;SDS011;61553;48.994;8.940;2024-03-17T03:38:15;11.68;;;4.22;;
32321;SDS011;61553;48.994;8.940;2024-03-17T03:40:41;12.48;;;4.82;;
32321;SDS011;61553;48.994;8.940;2024-03-17T03:43:09;17.50;;;5.88;;
32321;SDS011;61553;48.994;8.940;2024-03-17T03:45:36;17.48;;;5.63;;
32321;SDS011;61553;48.994;8.940;2024-03-17T03:48:02;11.50;;;5.78;;
32321;SDS011;61553;48.994;8.940;2024-03-17T03:50:29;32.38;;;8.82;;
32321;SDS011;61553;48.994;8.940;2024-03-17T03:52:55;12.18;;;7.13;;
32321;SDS011;61553;48.994;8.940;2024-03-17T03:55:21;16.58;;;8.63;;
32321;SDS011;61553;48.994;8.940;2024-03-17T03:57:47;20.67;;;9.65;;
32321;SDS011;61553;48.994;8.940;2024-03-17T04:00:13;19.20;;;9.52;;
32321;SDS011;61553;48.994;8.940;2024-03-17T04:02:40;21.20;;;10.55;;
32321;SDS011;61553;48.994;8.940;2024-03-17T04:05:09;20.30;;;9.95;;
32321;SDS011;61553;48.994;8.940;2024-03-17T04:07:36;17.60;;;9.88;;
32321;SDS011;61553;48.994;8.940;2024-03-17T04:10:02;16.73;;;7.13;;
32321;SDS011;61553;48.994;8.940;2024-03-17T04:12:29;13.55;;;6.05;;
32321;SDS011;61553;48.994;8.940;2024-03-17T04:14:56;12.98;;;5.72;;
32321;SDS011;61553;48.994;8.940;2024-03-17T04:17:22;16.67;;;7.47;;
32321;SDS011;61553;48.994;8.940;2024-03-17T04:19:51;23.00;;;9.50;;
32321;SDS011;61553;48.994;8.940;2024-03-17T04:22:18;20.48;;;10.55;;
32321;SDS011;61553;48.994;8.940;2024-03-17T04:24:47;22.60;;;9.93;;
32321;SDS011;61553;48.994;8.940;2024-03-17T04:27:21;18.35;;;9.88;;
32321;SDS011;61553;48.994;8.940;2024-03-17T04:29:47;27.65;;;10.82;;
32321;SDS011;61553;48.994;8.940;2024-03-17T04:32:21;33.28;;;11.75;;
32321;SDS011;61553;48.994;8.940;2024-03-17T04:34:47;22.02;;;10.40;;
32321;SDS011;61553;48.994;8.940;2024-03-17T04:37:12;23.75;;;10.90;;
32321;SDS011;61553;48.994;8.940;2024-03-17T04:39:39;24.08;;;11.82;;
32321;SDS011;61553;48.994;8.940;2024-03-17T04:42:07;29.30;;;12.00;;
32321;SDS011;61553;48.994;8.940;2024-03-17T04:44:32;25.27;;;12.10;;
32321;SDS011;61553;48.994;8.940;2024-03-17T04:46:58;24.55;;;12.48;;
32321;SDS011;61553;48.994;8.940;2024-03-17T04:49:24;21.50;;;12.13;;
32321;SDS011;61553;48.994;8.940;2024-03-17T04:51:49;30.42;;;13.18;;
32321;SDS011;61553;48.994;8.940;2024-03-17T04:54:15;26.13;;;12.35;;
32321;SDS011;61553;48.994;8.940;2024-03-17T04:56:41;44.30;;;13.73;;
32321;SDS011;61553;48.994;8.940;2024-03-17T04:59:07;32.38;;;14.15;;
32321;SDS011;61553;48.994;8.940;2024-03-17T05:01:32;28.15;;;13.30;;
32321;SDS011;61553;48.994;8.940;2024-03-17T05:04:02;42.60;;;14.45;;
32321;SDS011;61553;48.994;8.940;2024-03-17T05:06:30;24.65;;;13.77;;
32321;SDS011;61553;48.994;8.940;2024-03-17T05:08:56;30.60;;;13.60;;
32321;SDS011;61553;48.994;8.940;2024-03-17T05:11:23;28.67;;;14.10;;
32321;SDS011;61553;48.994;8.940;2024-03-17T05:13:51;42.80;;;15.18;;
32321;SDS011;61553;48.994;8.940;2024-03-17T05:16:17;31.27;;;13.00;;
32321;SDS011;61553;48.994;8.940;2024-03-17T05:18:42;25.10;;;12.55;;
32321;SDS011;61553;48.994;8.940;2024-03-17T05:21:08;24.10;;;13.88;;
32321;SDS011;61553;48.994;8.940;2024-03-17T05:23:34;58.92;;;15.00;;
32321;SDS011;61553;48.994;8.940;2024-03-17T05:26:02;25.40;;;13.48;;
32321;SDS011;61553;48.994;8.940;2024-03-17T05:28:31;48.40;;;15.30;;
32321;SDS011;61553;48.994;8.940;2024-03-17T05:30:57;34.72;;;14.10;;
32321;SDS011;61553;48.994;8.940;2024-03-17T05:33:24;27.52;;;14.13;;
32321;SDS011;61553;48.994;8.940;2024-03-17T05:35:51;39.75;;;14.45;;
32321;SDS011;61553;48.994;8.940;2024-03-17T05:38:24;24.23;;;13.73;;
32321;SDS011;61553;48.994;8.940;2024-03-17T05:43:27;29.42;;;14.35;;
32321;SDS011;61553;48.994;8.940;2024-03-17T05:45:54;29.08;;;14.45;;
32321;SDS011;61553;48.994;8.940;2024-03-17T05:48:22;34.05;;;14.70;;
32321;SDS011;61553;48.994;8.940;2024-03-17T05:50:49;29.55;;;15.05;;
32321;SDS011;61553;48.994;8.940;2024-03-17T05:53:16;35.08;;;15.13;;
32321;SDS011;61553;48.994;8.940;2024-03-17T05:55:43;35.30;;;14.80;;
32321;SDS011;61553;48.994;8.940;2024-03-17T05:58:10;24.88;;;13.70;;
32321;SDS011;61553;48.994;8.940;2024-03-17T06:00:36;32.33;;;14.57;;
32321;SDS011;61553;48.994;8.940;2024-03-17T06:03:02;39.63;;;17.15;;
32321;SDS011;61553;48.994;8.940;2024-03-17T06:05:38;32.28;;;15.55;;
32321;SDS011;61553;48.994;8.940;2024-03-17T06:08:08;35.80;;;16.48;;
32321;SDS011;61553;48.994;8.940;2024-03-17T06:10:34;42.38;;;17.00;;
32321;SDS011;61553;48.994;8.940;2024-03-17T06:13:01;53.03;;;25.55;;
32321;SDS011;61553;48.994;8.940;2024-03-17T06:15:28;45.97;;;21.20;;
32321;SDS011;61553;48.994;8.940;2024-03-17T06:17:54;51.58;;;20.65;;
32321;SDS011;61553;48.994;8.940;2024-03-17T06:20:20;32.88;;;16.15;;
32321;SDS011;61553;48.994;8.940;2024-03-17T06:22:48;28.80;;;15.88;;
32321;SDS011;61553;48.994;8.940;2024-03-17T06:25:14;32.72;;;15.77;;
32321;SDS011;61553;48.994;8.940;2024-03-17T06:27:40;35.95;;;18.63;;
32321;SDS011;61553;48.994;8.940;2024-03-17T06:30:06;59.67;;;21.67;;
32321;SDS011;61553;48.994;8.940;2024-03-17T06:32:36;38.10;;;20.33;;
32321;SDS011;61553;48.994;8.940;2024-03-17T06:35:01;72.80;;;30.00;;
32321;SDS011;61553;48.994;8.940;2024-03-17T06:37:27;47.88;;;21.67;;
32321;SDS011;61553;48.994;8.940;2024-03-17T06:39:53;47.88;;;21.17;;
32321;SDS011;61553;48.994;8.940;2024-03-17T06:42:19;53.53;;;22.55;;
32321;SDS011;61553;48.994;8.940;2024-03-17T06:44:44;72.82;;;23.20;;
32321;SDS011;61553;48.994;8.940;2024-03-17T06:47:10;35.20;;;16.27;;
32321;SDS011;61553;48.994;8.940;2024-03-17T06:49:36;41.03;;;21.40;;
32321;SDS011;61553;48.994;8.940;2024-03-17T06:52:02;59.15;;;19.33;;
32321;SDS011;61553;48.994;8.940;2024-03-17T06:54:27;45.63;;;24.08;;
32321;SDS011;61553;48.994;8.940;2024-03-17T06:56:53;34.72;;;20.20;;
32321;SDS011;61553;48.994;8.940;2024-03-17T06:59:19;42.15;;;22.00;;
32321;SDS011;61553;48.994;8.940;2024-03-17T07:01:46;48.85;;;25.92;;
32321;SDS011;61553;48.994;8.940;2024-03-17T07:04:12;36.40;;;19.98;;
32321;SDS011;61553;48.994;8.940;2024-03-17T07:06:38;64.15;;;26.60;;
32321;SDS011;61553;48.994;8.940;2024-03-17T07:09:03;55.40;;;23.35;;
32321;SDS011;61553;48.994;8.940;2024-03-17T07:11:29;47.60;;;19.40;;
32321;SDS011;61553;48.994;8.940;2024-03-17T07:13:54;41.75;;;19.90;;
32321;SDS011;61553;48.994;8.940;2024-03-17T07:16:20;47.60;;;18.05;;
32321;SDS011;61553;48.994;8.940;2024-03-17T07:18:50;36.95;;;17.45;;
32321;SDS011;61553;48.994;8.940;2024-03-17T07:21:17;40.90;;;24.33;;
32321;SDS011;61553;48.994;8.940;2024-03-17T07:23:43;56.47;;;19.30;;
32321;SDS011;61553;48.994;8.940;2024-03-17T07:26:09;32.40;;;17.45;;
32321;SDS011;61553;48.994;8.940;2024-03-17T07:28:35;46.25;;;18.13;;
32321;SDS011;61553;48.994;8.940;2024-03-17T07:31:05;33.33;;;15.63;;
32321;SDS011;61553;48.994;8.940;2024-03-17T07:33:33;62.53;;;18.33;;
32321;SDS011;61553;48.994;8.940;2024-03-17T07:35:59;50.63;;;19.52;;
32321;SDS011;61553;48.994;8.940;2024-03-17T07:38:28;44.03;;;18.60;;
32321;SDS011;61553;48.994;8.940;2024-03-17T07:41:01;39.15;;;20.13;;
32321;SDS011;61553;48.994;8.940;2024-03-17T07:43:28;44.90;;;23.05;;
32321;SDS011;61553;48.994;8.940;2024-03-17T07:48:31;43.97;;;18.38;;
32321;SDS011;61553;48.994;8.940;2024-03-17T07:50:59;29.23;;;16.02;;
32321;SDS011;61553;48.994;8.940;2024-03-17T07:53:29;34.42;;;15.70;;
32321;SDS011;61553;48.994;8.940;2024-03-17T07:56:00;41.05;;;19.75;;
32321;SDS011;61553;48.994;8.940;2024-03-17T07:58:26;40.33;;;16.60;;
32321;SDS011;61553;48.994;8.940;2024-03-17T08:00:56;37.20;;;18.77;;
32321;SDS011;61553;48.994;8.940;2024-03-17T08:05:51;34.50;;;17.13;;
32321;SDS011;61553;48.994;8.940;2024-03-17T08:08:17;32.55;;;14.70;;
32321;SDS011;61553;48.994;8.940;2024-03-17T08:10:44;27.88;;;14.30;;
32321;SDS011;61553;48.994;8.940;2024-03-17T08:13:10;29.55;;;14.80;;
32321;SDS011;61553;48.994;8.940;2024-03-17T08:15:35;25.85;;;16.95;;
32321;SDS011;61553;48.994;8.940;2024-03-17T08:18:02;24.40;;;14.02;;
32321;SDS011;61553;48.994;8.940;2024-03-17T08:20:29;27.38;;;16.27;;
32321;SDS011;61553;48.994;8.940;2024-03-17T08:22:54;33.88;;;17.02;;
32321;SDS011;61553;48.994;8.940;2024-03-17T08:25:21;26.10;;;16.00;;
32321;SDS011;61553;48.994;8.940;2024-03-17T08:27:46;23.17;;;14.63;;
32321;SDS011;61553;48.994;8.940;2024-03-17T08:30:12;21.13;;;13.00;;
32321;SDS011;61553;48.994;8.940;2024-03-17T08:32:41;23.98;;;13.95;;
32321;SDS011;61553;48.994;8.940;2024-03-17T08:35:06;20.67;;;11.88;;
32321;SDS011;61553;48.994;8.940;2024-03-17T08:37:32;18.23;;;11.23;;
32321;SDS011;61553;48.994;8.940;2024-03-17T08:40:01;19.60;;;12.18;;
32321;SDS011;61553;48.994;8.940;2024-03-17T08:42:27;27.77;;;16.05;;
32321;SDS011;61553;48.994;8.940;2024-03-17T08:44:52;18.00;;;11.20;;
32321;SDS011;61553;48.994;8.940;2024-03-17T08:47:19;20.83;;;12.63;;
32321;SDS011;61553;48.994;8.940;2024-03-17T08:49:45;20.17;;;11.60;;
32321;SDS011;61553;48.994;8.940;2024-03-17T08:52:10;17.83;;;10.27;;
32321;SDS011;61553;48.994;8.940;2024-03-17T08:54:36;18.83;;;10.82;;
32321;SDS011;61553;48.994;8.940;2024-03-17T08:57:02;16.63;;;10.13;;
32321;SDS011;61553;48.994;8.940;2024-03-17T08:59:27;15.07;;;9.43;;
32321;SDS011;61553;48.994;8.940;2024-03-17T09:01:53;15.63;;;10.43;;
32321;SDS011;61553;48.994;8.940;2024-03-17T09:04:19;14.80;;;8.63;;
32321;SDS011;61553;48.994;8.940;2024-03-17T09:06:44;19.60;;;10.45;;
32321;SDS011;61553;48.994;8.940;2024-03-17T09:09:10;14.45;;;9.60;;
32321;SDS011;61553;48.994;8.940;2024-03-17T09:11:39;14.07;;;9.15;;
32321;SDS011;61553;48.994;8.940;2024-03-17T09:14:04;16.10;;;9.57;;
32321;SDS011;61553;48.994;8.940;2024-03-17T09:16:30;12.75;;;8.38;;
32321;SDS011;61553;48.994;8.940;2024-03-17T09:18:57;14.75;;;8.77;;
32321;SDS011;61553;48.994;8.940;2024-03-17T09:21:22;14.00;;;9.40;;
32321;SDS011;61553;48.994;8.940;2024-03-17T09:23:48;13.75;;;8.07;;
32321;SDS011;61553;48.994;8.940;2024-03-17T09:26:15;13.80;;;8.98;;
32321;SDS011;61553;48.994;8.940;2024-03-17T09:28:42;13.15;;;8.23;;
32321;SDS011;61553;48.994;8.940;2024-03-17T09:31:09;13.25;;;8.40;;
32321;SDS011;61553;48.994;8.940;2024-03-17T09:33:36;13.40;;;8.48;;
32321;SDS011;61553;48.994;8.940;2024-03-17T09:36:03;12.75;;;7.85;;
32321;SDS011;61553;48.994;8.940;2024-03-17T09:38:31;10.75;;;7.15;;
32321;SDS011;61553;48.994;8.940;2024-03-17T09:40:57;13.48;;;8.35;;
32321;SDS011;61553;48.994;8.940;2024-03-17T09:43:25;11.82;;;7.70;;
32321;SDS011;61553;48.994;8.940;2024-03-17T09:45:51;12.50;;;8.65;;
32321;SDS011;61553;48.994;8.940;2024-03-17T09:48:20;12.45;;;7.20;;
32321;SDS011;61553;48.994;8.940;2024-03-17T09:53:16;12.43;;;7.70;;
32321;SDS011;61553;48.994;8.940;2024-03-17T09:55:44;11.00;;;7.47;;
32321;SDS011;61553;48.994;8.940;2024-03-17T09:58:19;13.60;;;7.15;;
32321;SDS011;61553;48.994;8.940;2024-03-17T10:00:45;10.52;;;6.45;;
32321;SDS011;61553;48.994;8.940;2024-03-17T10:03:11;9.75;;;6.35;;
32321;SDS011;61553;48.994;8.940;2024-03-17T10:05:37;10.10;;;7.35;;
32321;SDS011;61553;48.994;8.940;2024-03-17T10:08:03;12.63;;;10.50;;
32321;SDS011;61553;48.994;8.940;2024-03-17T10:10:29;13.45;;;9.80;;
32321;SDS011;61553;48.994;8.940;2024-03-17T10:12:55;11.80;;;9.68;;
32321;SDS011;61553;48.994;8.940;2024-03-17T10:15:21;16.15;;;14.20;;
32321;SDS011;61553;48.994;8.940;2024-03-17T10:17:48;12.88;;;10.43;;
32321;SDS011;61553;48.994;8.940;2024-03-17T10:25:25;10.00;;;7.38;;
32321;SDS011;61553;48.994;8.940;2024-03-17T10:27:52;10.48;;;7.57;;
32321;SDS011;61553;48.994;8.940;2024-03-17T10:30:19;9.57;;;6.47;;
32321;SDS011;61553;48.994;8.940;2024-03-17T10:32:51;8.23;;;5.00;;
32321;SDS011;61553;48.994;8.940;2024-03-17T10:35:25;10.52;;;5.30;;
32321;SDS011;61553;48.994;8.940;2024-03-17T10:38:00;7.55;;;4.60;;
32321;SDS011;61553;48.994;8.940;2024-03-17T10:40:28;7.10;;;4.72;;
32321;SDS011;61553;48.994;8.940;2024-03-17T10:42:55;6.05;;;4.32;;
32321;SDS011;61553;48.994;8.940;2024-03-17T10:45:23;6.35;;;4.22;;
32321;SDS011;61553;48.994;8.940;2024-03-17T10:47:50;8.05;;;3.67;;
32321;SDS011;61553;48.994;8.940;2024-03-17T10:50:20;5.75;;;3.40;;
32321;SDS011;61553;48.994;8.940;2024-03-17T10:52:48;5.78;;;3.90;;
32321;SDS011;61553;48.994;8.940;2024-03-17T10:55:19;6.38;;;3.38;;
32321;SDS011;61553;48.994;8.940;2024-03-17T10:57:50;8.52;;;3.85;;
32321;SDS011;61553;48.994;8.940;2024-03-17T11:00:17;5.32;;;2.97;;
32321;SDS011;61553;48.994;8.940;2024-03-17T11:02:47;6.60;;;3.65;;
32321;SDS011;61553;48.994;8.940;2024-03-17T11:05:36;4.47;;;2.80;;
32321;SDS011;61553;48.994;8.940;2024-03-17T11:08:01;5.65;;;2.83;;
32321;SDS011;61553;48.994;8.940;2024-03-17T11:10:29;7.35;;;3.05;;
32321;SDS011;61553;48.994;8.940;2024-03-17T11:12:58;4.68;;;2.45;;
32321;SDS011;61553;48.994;8.940;2024-03-17T11:20:35;4.35;;;2.33;;
32321;SDS011;61553;48.994;8.940;2024-03-17T11:23:04;6.90;;;2.90;;
32321;SDS011;61553;48.994;8.940;2024-03-17T11:28:01;5.85;;;3.10;;
32321;SDS011;61553;48.994;8.940;2024-03-17T11:41:41;3.75;;;2.60;;
32321;SDS011;61553;48.994;8.940;2024-03-17T11:44:22;9.05;;;2.97;;
32321;SDS011;61553;48.994;8.940;2024-03-17T11:46:55;5.53;;;2.20;;
32321;SDS011;61553;48.994;8.940;2024-03-17T11:49:28;5.40;;;2.40;;
32321;SDS011;61553;48.994;8.940;2024-03-17T11:51:57;5.45;;;2.50;;
32321;SDS011;61553;48.994;8.940;2024-03-17T11:54:28;5.55;;;2.72;;
32321;SDS011;61553;48.994;8.940;2024-03-17T11:57:02;5.45;;;2.67;;
32321;SDS011;61553;48.994;8.940;2024-03-17T11:59:29;6.78;;;2.80;;
32321;SDS011;61553;48.994;8.940;2024-03-17T12:01:55;5.72;;;2.80;;
32321;SDS011;61553;48.994;8.940;2024-03-17T12:04:21;6.82;;;2.53;;
32321;SDS011;61553;48.994;8.940;2024-03-17T12:06:48;5.32;;;2.47;;
32321;SDS011;61553;48.994;8.940;2024-03-17T12:11:59;6.25;;;2.80;;
32321;SDS011;61553;48.994;8.940;2024-03-17T12:14:33;6.13;;;3.78;;
32321;SDS011;61553;48.994;8.940;2024-03-17T12:17:05;9.00;;;7.30;;
32321;SDS011;61553;48.994;8.940;2024-03-17T12:19:33;6.35;;;2.97;;
32321;SDS011;61553;48.994;8.940;2024-03-17T12:22:00;19.92;;;12.82;;
32321;SDS011;61553;48.994;8.940;2024-03-17T12:24:27;10.27;;;6.70;;
32321;SDS011;61553;48.994;8.940;2024-03-17T12:26:55;6.10;;;3.08;;
32321;SDS011;61553;48.994;8.940;2024-03-17T12:34:35;10.52;;;5.28;;
32321;SDS011;61553;48.994;8.940;2024-03-17T12:37:01;20.48;;;9.70;;
32321;SDS011;61553;48.994;8.940;2024-03-17T12:42:10;8.85;;;3.90;;
32321;SDS011;61553;48.994;8.940;2024-03-17T12:44:39;5.72;;;2.60;;
32321;SDS011;61553;48.994;8.940;2024-03-17T12:47:22;5.10;;;2.35;;
32321;SDS011;61553;48.994;8.940;2024-03-17T12:49:48;8.77;;;3.80;;
32321;SDS011;61553;48.994;8.940;2024-03-17T12:52:19;4.13;;;2.40;;
32321;SDS011;61553;48.994;8.940;2024-03-17T12:57:51;25.95;;;13.02;;
32321;SDS011;61553;48.994;8.940;2024-03-17T13:00:57;82.40;;;38.53;;
32321;SDS011;61553;48.994;8.940;2024-03-17T13:03:25;21.50;;;11.40;;
32321;SDS011;61553;48.994;8.940;2024-03-17T13:06:01;10.43;;;4.70;;
32321;SDS011;61553;48.994;8.940;2024-03-17T13:08:29;6.57;;;3.35;;
32321;SDS011;61553;48.994;8.940;2024-03-17T13:10:56;5.20;;;2.97;;
32321;SDS011;61553;48.994;8.940;2024-03-17T13:13:23;7.32;;;3.10;;
32321;SDS011;61553;48.994;8.940;2024-03-17T13:15:48;8.30;;;3.75;;
32321;SDS011;61553;48.994;8.940;2024-03-17T13:18:17;6.35;;;3.40;;
32321;SDS011;61553;48.994;8.940;2024-03-17T13:20:44;5.38;;;2.85;;
32321;SDS011;61553;48.994;8.940;2024-03-17T13:23:18;5.45;;;3.30;;
32321;SDS011;61553;48.994;8.940;2024-03-17T13:25:44;5.55;;;2.72;;
32321;SDS011;61553;48.994;8.940;2024-03-17T13:28:10;4.55;;;2.58;;
32321;SDS011;61553;48.994;8.940;2024-03-17T13:30:36;5.03;;;2.38;;
32321;SDS011;61553;48.994;8.940;2024-03-17T13:33:02;5.00;;;2.40;;
32321;SDS011;61553;48.994;8.940;2024-03-17T13:35:33;5.13;;;2.50;;
32321;SDS011;61553;48.994;8.940;2024-03-17T13:38:00;5.55;;;2.47;;
32321;SDS011;61553;48.994;8.940;2024-03-17T13:40:28;6.53;;;3.30;;
32321;SDS011;61553;48.994;8.940;2024-03-17T13:42:55;5.50;;;2.45;;
32321;SDS011;61553;48.994;8.940;2024-03-17T13:45:22;8.38;;;2.65;;
32321;SDS011;61553;48.994;8.940;2024-03-17T13:47:51;4.32;;;1.83;;
32321;SDS011;61553;48.994;8.940;2024-03-17T13:50:20;4.45;;;1.88;;
32321;SDS011;61553;48.994;8.940;2024-03-17T13:52:46;3.78;;;2.30;;
32321;SDS011;61553;48.994;8.940;2024-03-17T13:55:13;4.70;;;2.30;;
32321;SDS011;61553;48.994;8.940;2024-03-17T13:57:44;5.43;;;2.47;;
32321;SDS011;61553;48.994;8.940;2024-03-17T14:00:11;6.03;;;2.28;;
32321;SDS011;61553;48.994;8.940;2024-03-17T14:02:44;8.63;;;3.25;;
32321;SDS011;61553;48.994;8.940;2024-03-17T14:05:11;6.15;;;2.53;;
32321;SDS011;61553;48.994;8.940;2024-03-17T14:07:39;3.90;;;2.22;;
32321;SDS011;61553;48.994;8.940;2024-03-17T14:10:05;4.13;;;2.00;;
32321;SDS011;61553;48.994;8.940;2024-03-17T14:12:33;3.85;;;2.03;;
32321;SDS011;61553;48.994;8.940;2024-03-17T14:14:59;4.22;;;2.00;;
32321;SDS011;61553;48.994;8.940;2024-03-17T14:17:24;5.57;;;2.47;;
32321;SDS011;61553;48.994;8.940;2024-03-17T14:19:50;5.68;;;2.25;;
32321;SDS011;61553;48.994;8.940;2024-03-17T14:22:16;4.03;;;2.20;;
32321;SDS011;61553;48.994;8.940;2024-03-17T14:24:41;3.45;;;1.90;;
32321;SDS011;61553;48.994;8.940;2024-03-17T14:27:07;6.25;;;2.47;;
32321;SDS011;61553;48.994;8.940;2024-03-17T14:29:36;4.38;;;2.40;;
32321;SDS011;61553;48.994;8.940;2024-03-17T14:32:02;6.15;;;2.60;;
32321;SDS011;61553;48.994;8.940;2024-03-17T14:34:28;6.15;;;2.20;;
32321;SDS011;61553;48.994;8.940;2024-03-17T14:36:59;6.03;;;2.83;;
32321;SDS011;61553;48.994;8.940;2024-03-17T14:39:27;3.60;;;2.28;;
32321;SDS011;61553;48.994;8.940;2024-03-17T14:41:54;5.78;;;2.40;;
32321;SDS011;61553;48.994;8.940;2024-03-17T14:44:20;7.13;;;2.28;;
32321;SDS011;61553;48.994;8.940;2024-03-17T14:46:46;7.53;;;3.05;;
32321;SDS011;61553;48.994;8.940;2024-03-17T14:49:13;6.30;;;2.55;;
32321;SDS011;61553;48.994;8.940;2024-03-17T14:51:39;7.57;;;2.70;;
32321;SDS011;61553;48.994;8.940;2024-03-17T14:54:04;5.20;;;2.45;;
32321;SDS011;61553;48.994;8.940;2024-03-17T14:56:30;6.18;;;2.40;;
32321;SDS011;61553;48.994;8.940;2024-03-17T14:58:56;5.57;;;2.88;;
32321;SDS011;61553;48.994;8.940;2024-03-17T15:01:22;6.95;;;3.33;;
32321;SDS011;61553;48.994;8.940;2024-03-17T15:03:47;7.30;;;3.50;;
32321;SDS011;61553;48.994;8.940;2024-03-17T15:06:13;5.18;;;2.33;;
32321;SDS011;61553;48.994;8.940;2024-03-17T15:08:39;4.95;;;2.22;;
32321;SDS011;61553;48.994;8.940;2024-03-17T15:11:06;6.70;;;2.85;;
32321;SDS011;61553;48.994;8.940;2024-03-17T15:13:33;3.65;;;1.77;;
32321;SDS011;61553;48.994;8.940;2024-03-17T15:16:00;4.95;;;2.25;;
32321;SDS011;61553;48.994;8.940;2024-03-17T15:18:28;6.80;;;2.75;;
32321;SDS011;61553;48.994;8.940;2024-03-17T15:20:54;6.18;;;2.78;;
32321;SDS011;61553;48.994;8.940;2024-03-17T15:23:23;4.70;;;2.50;;
32321;SDS011;61553;48.994;8.940;2024-03-17T15:26:06;4.63;;;2.78;;